Terminal Aerodrome Forecast
Issued by NWS Tuscon, AZ

Home | Current Version | Previous Version | Text Only | Print | Product List | Glossary On
Versions: 1 2 3 4 5 6 7 8 9 10 11 12 13 14
000
FTUS45 KTWC 240500
TAFTUS
TAF
KTUS 240520Z 2406/2506 15006KT P6SM VCSH FEW110 BKN180
     FM240900 14009KT P6SM FEW120 BKN200
     FM242100 15010KT P6SM FEW090 SCT200=

USA.gov is the U.S. government's official web portal to all federal, state and local government web resources and services.